Latest Weather Observations for Adelaide (West Terrace / ngayirdapira)

IDS60801

Issued at 9:11 am CST Sunday 19 September 2021 (issued every 10 minutes, with the page automatically refreshed every 10 minutes)

About weather observations | Map of weather stations | Latest weather observations for SA | Other Formats
Station Details ID: 023000 Name: ADELAIDE (WEST TERRACE / NGAYIRDAPIRA) Lat: -34.93 Lon: 138.58 Height: 29.32 m
Data from the previous 72 hours. | See also: Recent months at Adelaide (West Terrace / ngayirdapira)
Date/Time
CST
Temp
°C
App
Temp
°C
Dew
Point
°C
Rel
Hum
%
Delta-T
°C
Wind Press
QNH
hPa
Press
MSL
hPa
Rain since
9am
mm
Dir  Spd
km/h
Gust
km/h
Spd
kts
Gust
kts
19/09:00am 14.0 9.9 8.0 67 3.0 NNW 19 28 10 15 1021.2 1021.2 0.0
19/08:30am 12.8 9.8 7.9 72 2.4 N 13 20 7 11 1021.2 1021.2 0.0
19/08:00am 10.9 8.1 6.8 76 1.9 N 11 17 6 9 1021.0 1021.0 0.0
19/07:30am 9.7 6.8 6.4 80 1.5 N 11 17 6 9 1020.8 1020.8 0.0
19/07:00am 8.6 5.5 5.5 81 1.4 NNE 11 20 6 11 1020.7 1020.7 0.0
19/06:30am 8.0 4.5 5.5 84 1.1 N 13 19 7 10 1020.5 1020.5 0.0
19/06:00am 7.9 4.4 5.5 85 1.1 N 13 17 7 9 1020.4 1020.4 0.0
19/05:30am 7.9 4.4 5.5 85 1.1 NNE 13 20 7 11 1020.2 1020.2 0.0
19/05:00am 8.2 5.2 5.8 85 1.1 NNE 11 17 6 9 1020.1 1020.1 0.0
19/04:30am 8.4 5.0 5.9 84 1.1 NNE 13 19 7 10 1020.2 1020.2 0.0
19/04:00am 9.3 6.4 6.4 82 1.3 NNE 11 15 6 8 1020.3 1020.3 0.0
19/03:30am 8.8 6.2 6.1 83 1.2 NNE 9 13 5 7 1020.3 1020.3 0.0
19/03:00am 8.6 6.0 6.1 84 1.1 NNE 9 15 5 8 1020.5 1020.5 0.0
19/02:30am 8.5 5.8 5.6 82 1.3 N 9 13 5 7 1020.5 1020.5 0.0
19/02:00am 9.1 6.4 5.8 80 1.5 N 9 17 5 9 1020.8 1020.8 0.0
19/01:30am 9.7 7.1 6.2 79 1.6 N 9 13 5 7 1020.9 1020.9 0.0
19/01:00am 10.2 7.7 6.4 77 1.8 NNE 9 13 5 7 1021.0 1021.0 0.0
19/12:30am 11.4 9.0 7.1 75 2.0 N 9 15 5 8 1021.3 1021.3 0.0
19/12:00am 11.3 9.0 7.4 77 1.9 N 9 13 5 7 1021.6 1021.6 0.0
 
Date/Time
CST
Temp
°C
App
Temp
°C
Dew
Point
°C
Rel
Hum
%
Delta-T
°C
Wind Press
QNH
hPa
Press
MSL
hPa
Rain since
9am
mm
Dir  Spd
km/h
Gust
km/h
Spd
kts
Gust
kts
18/11:30pm 11.3 9.3 7.0 75 2.0 N 7 9 4 5 1021.9 1021.9 0.0
18/11:00pm 11.0 8.8 6.4 73 2.2 N 7 9 4 5 1021.9 1021.9 0.0
18/10:30pm 11.2 9.0 6.1 71 2.4 N 7 9 4 5 1022.0 1022.0 0.0
18/10:00pm 11.5 9.2 5.6 67 2.7 WSW 7 11 4 6 1022.5 1022.5 0.0
18/09:30pm 11.8 9.0 5.0 63 3.1 W 9 13 5 7 1022.7 1022.7 0.0
18/09:00pm 12.1 8.9 5.3 63 3.1 WSW 11 15 6 8 1022.4 1022.4 0.0
18/08:30pm 12.4 9.4 5.8 64 3.1 W 11 17 6 9 1022.2 1022.2 0.0
18/08:00pm 12.7 9.7 6.1 64 3.1 W 11 17 6 9 1022.0 1022.0 0.0
18/07:30pm 11.0 9.9 6.9 76 1.9 WNW 2 9 1 5 1021.7 1021.7 0.0
18/07:00pm 11.7 10.6 7.0 73 2.2 WSW 2 7 1 4 1021.6 1021.6 0.0
18/06:30pm 12.6 10.4 7.7 72 2.4 SW 9 13 5 7 1021.1 1021.1 0.0
18/06:00pm 13.2 11.3 7.6 69 2.7 SW 7 15 4 8 1021.0 1021.0 0.0
18/05:30pm 14.2 11.5 7.3 63 3.4 WSW 11 17 6 9 1020.9 1020.9 0.0
18/05:00pm 14.7 12.0 7.5 62 3.6 SW 11 17 6 9 1020.9 1020.9 0.0
18/04:30pm 15.5 13.0 8.0 61 3.8 SW 11 19 6 10 1020.7 1020.7 0.0
18/04:00pm 14.9 11.1 7.5 61 3.7 SW 17 26 9 14 1020.8 1020.8 0.0
18/03:30pm 14.3 10.8 7.4 63 3.4 WSW 15 22 8 12 1020.7 1020.7 0.0
18/03:00pm 16.0 13.5 8.2 60 3.9 SW 11 17 6 9 1020.6 1020.6 0.0
18/02:30pm 14.6 11.2 7.6 63 3.5 SW 15 22 8 12 1020.7 1020.7 0.0
18/02:00pm 15.3 12.2 8.8 65 3.3 WSW 15 24 8 13 1020.6 1020.6 0.0
18/01:30pm 14.4 10.6 7.7 64 3.3 WSW 17 28 9 15 1020.7 1020.7 0.0
18/01:00pm 13.0 9.2 9.8 81 1.6 WSW 20 32 11 17 1020.9 1020.9 0.0
18/12:30pm 15.7 10.7 6.4 54 4.5 WNW 22 33 12 18 1020.4 1020.4 0.0
18/12:00pm 16.6 12.4 8.1 57 4.3 W 20 33 11 18 1020.7 1020.7 0.0
18/11:30am 15.9 10.8 6.1 52 4.7 W 22 35 12 19 1020.8 1020.8 0.0
18/11:00am 15.6 11.1 6.9 56 4.3 W 20 33 11 18 1020.7 1020.7 0.0
18/10:30am 14.5 9.2 6.6 59 3.8 W 24 39 13 21 1020.6 1020.6 0.0
18/10:00am 14.2 8.7 6.1 58 3.9 W 24 41 13 22 1020.6 1020.6 0.0
18/09:30am 14.0 8.4 5.6 57 4.0 W 24 35 13 19 1020.4 1020.4 0.0
18/09:00am 13.7 8.4 7.0 64 3.2 W 24 37 13 20 1020.2 1020.2 0.0
18/08:30am 13.4 8.0 6.5 63 3.3 W 24 35 13 19 1019.8 1019.8 0.0
18/08:00am 13.2 8.7 6.8 65 3.1 W 20 35 11 19 1019.4 1019.4 0.0
18/07:30am 12.6 8.1 6.0 64 3.1 W 19 30 10 16 1018.9 1018.9 0.0
18/07:00am 12.2 7.6 5.6 64 3.1 W 19 33 10 18 1018.5 1018.5 0.0
18/06:30am 11.6 6.9 5.3 65 2.9 W 19 30 10 16 1018.2 1018.2 0.0
18/06:00am 11.6 7.8 5.9 68 2.7 W 15 30 8 16 1017.7 1017.7 0.0
18/05:30am 11.5 7.4 6.4 71 2.4 W 17 24 9 13 1017.5 1017.5 0.0
18/05:00am 11.9 7.8 6.0 67 2.8 W 17 26 9 14 1016.9 1016.9 0.0
18/04:30am 11.8 7.7 6.3 69 2.6 WNW 17 24 9 13 1016.4 1016.4 0.0
18/04:00am 12.2 7.4 5.4 63 3.2 W 20 35 11 19 1016.2 1016.2 0.0
18/03:30am 12.2 8.1 6.0 66 2.9 W 17 30 9 16 1015.9 1015.9 0.0
18/03:00am 12.6 7.6 4.8 59 3.6 W 20 35 11 19 1015.6 1015.6 0.0
18/02:30am 12.1 7.7 5.0 62 3.3 W 17 24 9 13 1015.7 1015.7 0.0
18/02:00am 12.7 8.3 4.7 58 3.7 W 17 32 9 17 1015.7 1015.7 0.0
18/01:30am 12.4 8.6 5.6 63 3.2 W 15 24 8 13 1015.9 1015.9 0.0
18/01:00am 12.4 8.4 6.5 67 2.8 W 17 24 9 13 1016.0 1016.0 0.0
18/12:30am 12.7 8.1 5.6 62 3.3 W 19 28 10 15 1015.9 1015.9 0.0
18/12:00am 13.0 8.3 5.9 62 3.3 W 20 30 11 16 1015.8 1015.8 0.0
 
Date/Time
CST
Temp
°C
App
Temp
°C
Dew
Point
°C
Rel
Hum
%
Delta-T
°C
Wind Press
QNH
hPa
Press
MSL
hPa
Rain since
9am
mm
Dir  Spd
km/h
Gust
km/h
Spd
kts
Gust
kts
17/11:30pm 13.3 8.9 7.5 68 2.8 W 20 28 11 15 1015.8 1015.8 0.0
17/11:00pm 14.0 10.4 8.2 68 2.9 W 17 28 9 15 1015.7 1015.7 0.0
17/10:30pm 14.0 11.3 9.0 72 2.5 WNW 13 20 7 11 1015.7 1015.7 0.0
17/10:00pm 13.6 10.8 8.4 71 2.6 WNW 13 24 7 13 1015.8 1015.8 0.0
17/09:30pm 13.9 11.0 8.1 68 2.9 W 13 24 7 13 1015.5 1015.5 0.0
17/09:00pm 14.1 11.0 8.9 71 2.6 W 15 26 8 14 1015.3 1015.3 0.0
17/08:30pm 14.3 9.6 9.1 71 2.6 WSW 24 41 13 22 1014.6 1014.6 0.0
17/08:00pm 15.2 11.4 9.1 67 3.1 W 19 30 10 16 1013.7 1013.7 0.0
17/07:30pm 15.7 11.9 9.1 65 3.4 W 19 30 10 16 1013.1 1013.1 0.0
17/07:00pm 15.9 12.5 9.1 64 3.5 WSW 17 30 9 16 1012.5 1012.5 0.0
17/06:30pm 16.4 13.0 9.1 62 3.8 W 17 26 9 14 1012.0 1012.0 0.0
17/06:00pm 16.4 13.0 9.3 63 3.7 WSW 17 26 9 14 1011.6 1011.6 0.0
17/05:30pm 17.7 14.7 9.1 57 4.5 WSW 15 24 8 13 1010.9 1010.9 0.0
17/05:00pm 17.3 14.7 9.2 59 4.2 WSW 13 20 7 11 1010.3 1010.3 0.0
17/04:30pm 18.6 15.9 9.1 54 5.0 SSW 13 19 7 10 1009.7 1009.7 0.0
17/04:00pm 18.4 15.5 9.7 57 4.6 SW 15 24 8 13 1009.6 1009.6 0.0
17/03:30pm 18.5 15.5 9.3 55 4.8 WSW 15 26 8 14 1009.3 1009.3 0.0
17/03:00pm 18.6 16.7 9.1 54 5.0 WSW 9 20 5 11 1008.9 1008.9 0.0
17/02:30pm 18.4 15.6 10.0 58 4.5 SW 15 24 8 13 1008.9 1008.9 0.0
17/02:00pm 20.5 18.4 11.2 55 5.1 WSW 13 19 7 10 1008.6 1008.6 0.0
17/01:30pm 20.5 18.5 11.4 56 5.0 SW 13 20 7 11 1008.5 1008.5 0.0
17/01:00pm 21.2 19.6 11.5 54 5.4 SW 11 19 6 10 1008.8 1008.8 0.0
17/12:30pm 20.0 16.8 9.9 52 5.4 WSW 17 24 9 13 1008.7 1008.7 0.0
17/12:00pm 20.4 17.2 9.9 51 5.7 WSW 17 24 9 13 1008.8 1008.8 0.0
17/11:30am 20.2 17.7 10.9 55 5.1 WSW 15 20 8 11 1009.0 1009.0 0.0
17/11:00am 20.2 17.6 9.5 50 5.7 W 13 19 7 10 1008.7 1008.7 0.0
17/10:30am 21.3 17.2 6.4 38 7.6 W 17 30 9 16 1008.5 1008.5 0.0
17/10:00am 21.7 18.7 4.3 32 8.5 NW 9 15 5 8 1008.3 1008.3 0.0
17/09:30am 21.2 17.3 3.4 31 8.5 NNW 13 17 7 9 1008.2 1008.2 0.0
17/09:00am 21.3 16.5 2.6 29 8.8 NW 17 26 9 14 1008.0 1008.0 0.0
17/08:30am 21.3 16.3 1.6 27 9.1 NNE 17 26 9 14 1007.6 1007.6 0.0
17/08:00am 20.2 16.1 2.5 31 8.2 NE 13 20 7 11 1007.4 1007.4 0.0
17/07:30am 19.2 14.3 1.7 31 8.0 NE 17 26 9 14 1007.3 1007.3 0.0
17/07:00am 18.7 13.6 0.8 30 8.0 NE 17 24 9 13 1007.2 1007.1 0.0
17/06:30am 18.6 13.9 0.7 30 8.0 NNE 15 22 8 12 1007.4 1007.4 0.0
17/06:00am 18.1 14.1 0.7 31 7.7 N 11 17 6 9 1007.4 1007.4 0.0
17/05:30am 19.3 15.2 -0.1 27 8.5 NNW 11 19 6 10 1007.0 1006.9 0.0
17/05:00am 20.7 15.8 -0.6 24 9.4 N 15 24 8 13 1005.9 1005.8 0.0
17/04:30am 21.1 15.5 -0.2 24 9.5 NNE 19 32 10 17 1005.3 1005.2 0.0
17/04:00am 21.6 14.6 -0.4 23 9.8 NE 26 39 14 21 1005.1 1005.0 0.0
17/03:41am 21.3 14.1 0.5 25 9.4 NNE 28 50 15 27 1005.2 1005.1 0.0
17/03:30am 21.1 15.2 1.4 27 9.1 NNE 22 37 12 20 1005.6 1005.5 0.0
17/03:00am 22.4 15.7 -1.0 21 10.4 NE 24 41 13 22 1005.5 1005.4 0.0
17/02:30am 22.5 16.2 -0.9 21 10.4 NE 22 39 12 21 1006.0 1005.9 0.0
17/02:00am 22.6 16.2 -1.5 20 10.6 NE 22 44 12 24 1006.6 1006.5 0.0
17/01:30am 22.5 15.4 -1.6 20 10.6 NNE 26 50 14 27 1006.9 1006.8 0.0
17/01:00am 22.5 15.8 -0.9 21 10.4 NE 24 39 13 21 1008.0 1008.0 0.0
17/12:30am 22.4 16.5 -1.0 21 10.4 NE 20 43 11 23 1008.1 1008.1 0.0
17/12:00am 21.7 16.0 -0.9 22 10.0 NE 19 32 10 17 1008.6 1008.6 0.0
 
Date/Time
CST
Temp
°C
App
Temp
°C
Dew
Point
°C
Rel
Hum
%
Delta-T
°C
Wind Press
QNH
hPa
Press
MSL
hPa
Rain since
9am
mm
Dir  Spd
km/h
Gust
km/h
Spd
kts
Gust
kts
16/11:30pm 20.7 15.9 0.0 25 9.2 NE 15 24 8 13 1009.6 1009.6 0.0
16/11:00pm 20.3 15.9 0.2 26 8.9 NE 13 20 7 11 1010.1 1010.1 0.0
16/10:30pm 21.0 15.8 0.2 25 9.3 NE 17 30 9 16 1010.5 1010.5 0.0
16/10:00pm 21.1 15.6 0.3 25 9.3 NE 19 33 10 18 1010.7 1010.7 0.0
16/09:30pm 21.7 16.4 -0.3 23 9.8 NE 17 28 9 15 1011.3 1011.3 0.0
16/09:00pm 22.4 16.6 -0.3 22 10.2 NE 20 39 11 21 1011.1 1011.1 0.0
16/08:30pm 22.1 16.5 0.0 23 10.0 ENE 19 28 10 15 1011.3 1011.3 0.0
16/08:00pm 21.9 16.8 1.0 25 9.6 NE 17 28 9 15 1011.8 1011.8 0.0
16/07:30pm 22.0 17.3 1.1 25 9.6 ENE 15 24 8 13 1011.7 1011.7 0.0
16/07:00pm 21.8 16.8 1.5 26 9.4 ENE 17 26 9 14 1011.6 1011.6 0.0
16/06:30pm 21.8 17.3 2.0 27 9.2 NE 15 20 8 11 1012.1 1012.1 0.0
16/06:00pm 21.8 18.0 2.0 27 9.2 NE 11 17 6 9 1012.4 1012.4 0.0
16/05:30pm 22.5 18.0 2.1 26 9.6 NNE 15 28 8 15 1012.5 1012.5 0.0
16/05:00pm 23.2 18.4 2.7 26 9.8 NNE 17 28 9 15 1012.6 1012.6 0.0
16/04:30pm 23.3 18.1 2.2 25 10.0 NE 19 30 10 16 1013.0 1013.0 0.0
16/04:00pm 23.4 18.3 2.8 26 9.9 NNE 19 26 10 14 1013.5 1013.5 0.0
16/03:30pm 23.5 18.4 2.9 26 9.9 NNE 19 30 10 16 1013.6 1013.6 0.0
16/03:00pm 23.5 18.8 3.4 27 9.8 NNE 17 28 9 15 1014.0 1014.0 0.0
16/02:30pm 23.3 18.9 4.8 30 9.2 NE 17 26 9 14 1014.7 1014.7 0.0
16/02:00pm 23.4 19.2 3.9 28 9.5 NNE 15 24 8 13 1015.1 1015.1 0.0
16/01:30pm 22.7 17.7 3.8 29 9.2 NNE 19 30 10 16 1015.7 1015.7 0.0
16/01:00pm 22.9 18.5 4.9 31 8.9 NNE 17 28 9 15 1016.2 1016.2 0.0
16/12:30pm 22.6 18.6 5.1 32 8.7 N 15 24 8 13 1016.7 1016.7 0.0
16/12:00pm 22.0 18.0 5.0 33 8.4 NNE 15 24 8 13 1017.2 1017.2 0.0
16/11:30am 21.8 17.8 4.8 33 8.4 N 15 28 8 15 1017.5 1017.5 0.0
16/11:00am 21.3 16.7 3.5 31 8.5 NE 17 33 9 18 1018.0 1018.0 0.0
16/10:30am 20.6 15.9 3.3 32 8.2 NE 17 28 9 15 1018.3 1018.3 0.0
16/10:00am 20.3 17.1 5.1 37 7.5 NE 11 20 6 11 1019.0 1019.0 0.0
16/09:30am 18.7 14.6 4.1 38 6.9 NE 15 22 8 12 1019.5 1019.5 0.0

Other formats

Comma delimited format used in spreadsheet applications
http://www.bom.gov.au/fwo/IDS60801/IDS60801.94648.axf

JavaScript Object Notation format (JSON) in row-major order
http://www.bom.gov.au/fwo/IDS60801/IDS60801.94648.json

Data quality

Most of these data are generated automatically and are frequently updated. Quality checks on data are not normally performed. It is possible for incorrect values to appear. Refer to information at About Latest Weather Observations and please check the disclaimer before using these data.